This is the latest recevied weather packets stored in our database for station/object LRCL. If no packets are shown the sender has not sent any weather packets the latest 10 day(s).
| Time | Temp. | Humidity | Pressure | Rain* | Wind** | Luminosity | Snow |
|---|---|---|---|---|---|---|---|
| 1777714463 | 13.89° C | 39% | 1023 hPa | - | - | - | - |
| 1777713488 | 13.89° C | 39% | 1023 hPa | - | - | - | - |
| 1777712588 | 13.89° C | 39% | 1023 hPa | - | - | - | - |
| 1777711695 | 12.78° C | 41% | 1023 hPa | - | - | - | - |
| 1777710788 | 12.78° C | 41% | 1023 hPa | - | - | - | - |
| 1777709888 | 12.22° C | 47% | 1024 hPa | - | - | - | - |
| 1777708988 | 12.22° C | 47% | 1024 hPa | - | - | - | - |
| 1777708088 | 11.11° C | 50% | 1024 hPa | - | - | - | - |
| 1777707188 | 11.11° C | 50% | 1024 hPa | - | - | - | - |
| 1777706288 | 10° C | 54% | 1024 hPa | - | - | - | - |
| 1777705389 | 10° C | 54% | 1024 hPa | - | - | - | - |
| 1777704488 | 8.89° C | 54% | 1024 hPa | - | - | - | - |
| 1777703588 | 8.89° C | 54% | 1024 hPa | - | - | - | - |
| 1777702688 | 7.78° C | 57% | 1023 hPa | - | - | - | - |
| 1777701788 | 7.78° C | 57% | 1023 hPa | - | - | - | - |
| 1777700888 | 7.22° C | 61% | 1023 hPa | - | - | - | - |
| 1777699989 | 7.22° C | 61% | 1023 hPa | - | - | - | - |
| 1777699088 | 6.11° C | 66% | 1023 hPa | - | - | - | - |
| 1777698188 | 6.11° C | 66% | 1023 hPa | - | - | - | - |
| 1777697288 | 5° C | 70% | 1023 hPa | - | - | - | - |
| 1777696388 | 5° C | 70% | 1023 hPa | - | - | - | - |
| 1777695489 | 5° C | 66% | 1023 hPa | - | - | - | - |
| 1777694588 | 5° C | 66% | 1023 hPa | - | - | - | - |
| 1777693763 | 3.89° C | 70% | 1023 hPa | - | - | - | - |
| 1777692788 | 3.89° C | 70% | 1023 hPa | - | - | - | - |
* Rain since midnight (hover to see other rain measurements)
** Current wind speed in m/s (hover to see current wind gust speed)